createdAt,value
2023-02-16T00:01:28.004Z,8.80
2023-02-16T00:03:56.822Z,8.50
2023-02-16T00:06:25.241Z,8.10
2023-02-16T00:08:55.085Z,8.00
2023-02-16T00:11:51.721Z,8.20
2023-02-16T00:14:22.665Z,8.40
2023-02-16T00:16:51.964Z,8.30
2023-02-16T00:19:22.642Z,8.30
2023-02-16T00:21:52.501Z,8.40
2023-02-16T00:24:20.510Z,8.40
2023-02-16T00:26:49.128Z,8.40
2023-02-16T00:29:21.711Z,8.50
2023-02-16T00:31:51.481Z,8.50
2023-02-16T00:34:36.498Z,8.60
2023-02-16T00:37:07.040Z,8.50
2023-02-16T00:39:36.011Z,8.30
2023-02-16T00:42:06.029Z,8.60
2023-02-16T00:44:36.996Z,8.60
2023-02-16T00:47:18.243Z,8.70
2023-02-16T00:49:46.243Z,8.60
2023-02-16T00:52:29.685Z,8.60
2023-02-16T00:54:57.791Z,8.80
2023-02-16T00:57:26.265Z,8.90
2023-02-16T01:00:00.744Z,8.80
2023-02-16T01:02:30.456Z,8.80
2023-02-16T01:04:58.299Z,8.60
2023-02-16T01:07:43.754Z,8.70
2023-02-16T01:10:32.436Z,8.90
2023-02-16T01:13:00.680Z,8.80
2023-02-16T01:15:28.430Z,8.50
2023-02-16T01:17:57.471Z,8.70
2023-02-16T01:20:26.839Z,8.60
2023-02-16T01:22:54.549Z,8.60
2023-02-16T01:25:22.471Z,8.70
2023-02-16T01:27:51.128Z,8.50
2023-02-16T01:30:20.186Z,8.20
2023-02-16T01:32:51.557Z,8.20
2023-02-16T01:35:22.108Z,8.20
2023-02-16T01:37:50.695Z,8.00
2023-02-16T01:40:30.912Z,8.00
2023-02-16T01:43:04.098Z,8.10
2023-02-16T01:45:34.762Z,8.20
2023-02-16T01:48:06.134Z,8.20
2023-02-16T01:50:45.556Z,8.30
2023-02-16T01:53:20.889Z,8.20
2023-02-16T01:55:53.560Z,8.20
2023-02-16T01:58:32.196Z,8.20
2023-02-16T02:01:37.496Z,8.20
2023-02-16T02:04:46.189Z,7.80
2023-02-16T02:07:24.502Z,7.60
2023-02-16T02:10:00.777Z,7.50
2023-02-16T02:12:35.765Z,7.50
2023-02-16T02:15:03.524Z,7.60
2023-02-16T02:17:31.468Z,7.80
2023-02-16T02:20:06.706Z,7.70
2023-02-16T02:23:31.843Z,7.50
2023-02-16T02:26:27.134Z,7.60
2023-02-16T02:29:08.177Z,7.60
2023-02-16T02:31:50.977Z,7.80
2023-02-16T02:34:29.535Z,7.70
2023-02-16T02:37:07.166Z,7.80
2023-02-16T02:39:42.544Z,7.90
2023-02-16T02:42:15.131Z,7.90
2023-02-16T02:44:53.180Z,7.80
2023-02-16T02:47:20.944Z,7.90
2023-02-16T02:49:53.106Z,7.90
2023-02-16T02:52:21.793Z,8.00
2023-02-16T02:55:08.613Z,8.00
2023-02-16T02:57:58.811Z,8.10
2023-02-16T03:00:44.889Z,8.30
2023-02-16T03:03:16.972Z,8.30
2023-02-16T03:05:47.300Z,8.30
2023-02-16T03:08:17.882Z,8.50
2023-02-16T03:11:07.885Z,8.30
2023-02-16T03:13:38.433Z,8.20
2023-02-16T03:16:12.227Z,8.00
2023-02-16T03:19:01.219Z,7.70
2023-02-16T03:21:47.526Z,7.60
2023-02-16T03:24:40.535Z,7.60
2023-02-16T03:27:27.629Z,7.60
2023-02-16T03:29:58.410Z,7.10
2023-02-16T03:32:27.896Z,6.90
2023-02-16T03:34:55.653Z,6.80
2023-02-16T03:37:23.454Z,6.80
2023-02-16T03:40:09.980Z,6.70
2023-02-16T03:42:37.756Z,6.60
2023-02-16T03:45:05.998Z,6.80
2023-02-16T03:47:35.022Z,7.10
2023-02-16T03:50:02.729Z,7.20
2023-02-16T03:52:30.424Z,7.20
2023-02-16T03:54:58.333Z,7.20
2023-02-16T03:57:26.055Z,7.20
2023-02-16T03:59:54.159Z,7.10
2023-02-16T04:02:22.024Z,7.10
2023-02-16T04:04:51.075Z,6.90
2023-02-16T04:07:18.762Z,6.70
2023-02-16T04:09:46.581Z,6.50
2023-02-16T04:12:28.497Z,6.50
2023-02-16T04:14:56.239Z,6.60
2023-02-16T04:17:23.936Z,6.50
2023-02-16T04:19:53.000Z,6.50
2023-02-16T04:22:20.705Z,6.60
2023-02-16T04:24:48.433Z,6.60
2023-02-16T04:27:16.168Z,6.40
2023-02-16T04:29:43.899Z,6.40
2023-02-16T04:32:11.737Z,6.40
2023-02-16T04:34:39.558Z,6.00
2023-02-16T04:37:08.707Z,5.80
2023-02-16T04:39:36.460Z,5.90
2023-02-16T04:42:04.250Z,5.90
2023-02-16T04:44:32.013Z,6.00
2023-02-16T04:46:59.767Z,5.90
2023-02-16T04:49:27.904Z,5.90
2023-02-16T04:51:55.634Z,5.80
2023-02-16T04:54:24.651Z,5.90
2023-02-16T04:56:52.374Z,5.80
2023-02-16T04:59:20.164Z,5.90
2023-02-16T05:01:49.012Z,5.90
2023-02-16T05:04:17.354Z,5.90
2023-02-16T05:06:45.081Z,6.10
2023-02-16T05:09:13.007Z,6.30
2023-02-16T05:11:59.661Z,6.40
2023-02-16T05:14:43.006Z,6.50
2023-02-16T05:17:12.262Z,6.70
2023-02-16T05:19:40.882Z,6.80
2023-02-16T05:22:09.036Z,6.80
2023-02-16T05:24:37.159Z,6.80
2023-02-16T05:27:08.208Z,6.70
2023-02-16T05:29:35.966Z,6.50
2023-02-16T05:32:04.809Z,6.20
2023-02-16T05:34:33.069Z,5.90
2023-02-16T05:37:00.821Z,5.90
2023-02-16T05:39:28.703Z,5.80
2023-02-16T05:41:56.540Z,5.70
2023-02-16T05:44:25.882Z,5.70
2023-02-16T05:46:53.602Z,5.70
2023-02-16T05:49:21.469Z,5.70
2023-02-16T05:51:49.347Z,5.70
2023-02-16T05:54:18.046Z,5.90
2023-02-16T05:56:46.888Z,5.90
2023-02-16T05:59:15.915Z,6.00
2023-02-16T06:01:49.539Z,6.10
2023-02-16T06:04:19.321Z,6.30
2023-02-16T06:06:47.113Z,6.50
2023-02-16T06:09:14.862Z,6.60
2023-02-16T06:11:42.593Z,6.50
2023-02-16T06:14:12.042Z,6.40
2023-02-16T06:16:43.260Z,6.30
2023-02-16T06:19:12.677Z,6.30
2023-02-16T06:21:41.605Z,6.40
2023-02-16T06:24:11.642Z,6.50
2023-02-16T06:26:39.604Z,6.50
2023-02-16T06:29:07.419Z,6.60
2023-02-16T06:31:36.810Z,6.70
2023-02-16T06:34:04.994Z,6.70
2023-02-16T06:36:34.946Z,6.70
2023-02-16T06:39:03.246Z,6.90
2023-02-16T06:41:35.779Z,7.00
2023-02-16T06:44:06.038Z,7.20
2023-02-16T06:46:34.377Z,7.20
2023-02-16T06:49:02.330Z,7.40
2023-02-16T06:51:30.236Z,7.60
2023-02-16T06:53:59.333Z,7.80
2023-02-16T06:56:27.160Z,7.80
2023-02-16T06:58:54.945Z,7.80
2023-02-16T07:01:25.621Z,7.70
2023-02-16T07:03:54.688Z,7.50
2023-02-16T07:06:23.403Z,7.50
2023-02-16T07:08:51.273Z,7.30
2023-02-16T07:11:21.038Z,7.50
2023-02-16T07:13:48.898Z,7.50
2023-02-16T07:16:16.729Z,7.60
2023-02-16T07:18:44.957Z,7.50
2023-02-16T07:21:12.703Z,7.80
2023-02-16T07:23:40.538Z,7.90
2023-02-16T07:26:08.490Z,7.80
2023-02-16T07:28:37.699Z,7.90
2023-02-16T07:31:10.468Z,7.70
2023-02-16T07:33:38.673Z,7.90
2023-02-16T07:36:07.585Z,8.00
2023-02-16T07:38:35.432Z,8.20
2023-02-16T07:41:05.214Z,8.50
2023-02-16T07:43:34.573Z,8.60
2023-02-16T07:46:03.878Z,8.70
2023-02-16T07:48:31.904Z,8.90
2023-02-16T07:51:00.164Z,8.90
2023-02-16T07:53:27.935Z,9.10
2023-02-16T07:55:56.584Z,9.10
2023-02-16T07:58:30.409Z,9.20
2023-02-16T08:01:07.192Z,9.30
2023-02-16T08:03:36.215Z,9.40
2023-02-16T08:06:04.755Z,9.50
2023-02-16T08:08:33.121Z,9.60
2023-02-16T08:11:01.099Z,9.70
2023-02-16T08:13:28.851Z,9.90
2023-02-16T08:15:56.614Z,9.90
2023-02-16T08:18:24.306Z,10.00
2023-02-16T08:21:03.810Z,10.10
2023-02-16T08:23:32.388Z,10.00
2023-02-16T08:26:00.125Z,10.10
2023-02-16T08:28:29.299Z,10.30
2023-02-16T08:30:57.119Z,10.40
2023-02-16T08:33:25.002Z,10.50
2023-02-16T08:35:54.100Z,10.50
2023-02-16T08:38:22.732Z,10.60
2023-02-16T08:40:50.917Z,10.70
2023-02-16T08:43:18.861Z,10.80
2023-02-16T08:45:47.388Z,10.90
2023-02-16T08:48:16.509Z,11.00
2023-02-16T08:50:46.941Z,11.20
2023-02-16T08:53:16.016Z,11.30
2023-02-16T08:55:43.794Z,11.30
2023-02-16T08:58:11.539Z,11.40
2023-02-16T09:00:39.219Z,11.40
2023-02-16T09:03:06.943Z,11.60
2023-02-16T09:05:35.268Z,11.90
2023-02-16T09:08:03.325Z,12.00
2023-02-16T09:10:32.860Z,12.10
2023-02-16T09:13:00.633Z,12.00
2023-02-16T09:15:28.752Z,11.90
2023-02-16T09:17:56.496Z,12.20
2023-02-16T09:20:24.551Z,12.20
2023-02-16T09:22:53.038Z,12.40
2023-02-16T09:25:20.891Z,12.50
2023-02-16T09:27:49.957Z,12.50
2023-02-16T09:30:18.579Z,12.50
2023-02-16T09:32:46.317Z,12.40
2023-02-16T09:35:14.014Z,11.90
2023-02-16T09:37:41.747Z,11.80
2023-02-16T09:40:13.362Z,11.90
2023-02-16T09:42:56.729Z,12.00
2023-02-16T09:45:26.801Z,12.20
2023-02-16T09:47:55.306Z,12.10
2023-02-16T09:50:50.346Z,12.20
2023-02-16T09:53:21.059Z,12.20
2023-02-16T09:55:58.041Z,12.40
2023-02-16T09:58:33.382Z,12.40
2023-02-16T10:01:07.678Z,12.50
2023-02-16T10:03:50.838Z,12.90
2023-02-16T10:06:32.681Z,13.20
2023-02-16T10:09:05.760Z,13.40
2023-02-16T10:11:41.445Z,13.20
2023-02-16T10:14:23.902Z,13.40
2023-02-16T10:16:57.044Z,13.30
2023-02-16T10:19:29.260Z,13.40
2023-02-16T10:22:03.417Z,13.60
2023-02-16T10:24:39.518Z,13.80
2023-02-16T10:27:14.334Z,13.60
2023-02-16T10:29:43.564Z,13.80
2023-02-16T10:32:20.834Z,13.80
2023-02-16T10:34:51.288Z,14.20
2023-02-16T10:37:38.336Z,14.30
2023-02-16T10:40:26.041Z,14.40
2023-02-16T10:43:01.811Z,14.60
2023-02-16T10:45:37.257Z,14.50
2023-02-16T10:48:06.026Z,14.70
2023-02-16T10:50:38.877Z,14.90
2023-02-16T10:53:13.231Z,15.00
2023-02-16T10:55:41.035Z,14.90
2023-02-16T10:58:18.006Z,14.80
2023-02-16T11:00:54.308Z,15.10
2023-02-16T11:03:25.386Z,15.10
2023-02-16T11:05:54.665Z,15.30
2023-02-16T11:08:24.078Z,15.50
2023-02-16T11:10:54.310Z,15.40
2023-02-16T11:13:27.923Z,15.60
2023-02-16T11:15:58.997Z,15.80
2023-02-16T11:18:37.894Z,15.80
2023-02-16T11:21:07.386Z,15.70
2023-02-16T11:23:37.285Z,15.30
2023-02-16T11:26:06.908Z,15.50
2023-02-16T11:28:36.956Z,15.70
2023-02-16T11:31:14.805Z,15.70
2023-02-16T11:33:44.348Z,15.90
2023-02-16T11:36:33.392Z,15.90
2023-02-16T11:39:04.125Z,15.80
2023-02-16T11:41:33.430Z,15.80
2023-02-16T11:44:02.818Z,15.90
2023-02-16T11:46:40.657Z,15.90
2023-02-16T11:49:30.752Z,16.00
2023-02-16T11:51:59.280Z,16.00
2023-02-16T11:54:27.642Z,16.00
2023-02-16T11:57:06.723Z,16.00
2023-02-16T11:59:38.656Z,15.90
2023-02-16T12:02:40.649Z,15.70
2023-02-16T12:05:21.809Z,15.40
2023-02-16T12:08:18.127Z,15.10
2023-02-16T12:10:58.453Z,15.00
2023-02-16T12:13:33.975Z,15.10
2023-02-16T12:16:13.248Z,15.10
2023-02-16T12:18:48.028Z,15.30
2023-02-16T12:21:24.873Z,15.00
2023-02-16T12:24:01.826Z,14.90
2023-02-16T12:26:39.079Z,14.90
2023-02-16T12:29:21.389Z,14.90
2023-02-16T12:32:02.081Z,14.60
2023-02-16T12:34:41.061Z,14.80
2023-02-16T12:37:22.340Z,14.80
2023-02-16T12:40:00.145Z,14.90
2023-02-16T12:42:48.312Z,14.90
2023-02-16T12:45:19.916Z,14.80
2023-02-16T12:47:53.591Z,14.80
2023-02-16T12:50:25.856Z,14.80
2023-02-16T12:52:58.246Z,14.90
2023-02-16T12:55:29.084Z,15.10
2023-02-16T12:58:04.216Z,15.20
2023-02-16T13:00:41.531Z,15.10
2023-02-16T13:03:21.735Z,15.30
2023-02-16T13:05:59.935Z,15.10
2023-02-16T13:08:39.167Z,15.10
2023-02-16T13:11:15.473Z,14.90
2023-02-16T13:13:45.741Z,15.10
2023-02-16T13:16:28.976Z,15.10
2023-02-16T13:18:58.176Z,14.90
2023-02-16T13:21:51.346Z,15.00
2023-02-16T13:24:29.521Z,15.10
2023-02-16T13:27:08.741Z,15.10
2023-02-16T13:29:52.507Z,15.10
2023-02-16T13:32:51.099Z,15.10
2023-02-16T13:35:54.546Z,15.10
2023-02-16T13:38:50.026Z,15.00
2023-02-16T13:41:41.106Z,15.00
2023-02-16T13:44:11.152Z,14.90
2023-02-16T13:46:42.847Z,14.90
2023-02-16T13:49:31.455Z,14.90
2023-02-16T13:52:00.119Z,14.80
2023-02-16T13:54:33.011Z,14.70
2023-02-16T13:57:03.988Z,14.60
2023-02-16T14:00:05.197Z,14.50
2023-02-16T14:02:54.286Z,14.70
2023-02-16T14:05:28.467Z,14.70
2023-02-16T14:08:23.161Z,14.70
2023-02-16T14:11:05.623Z,14.70
2023-02-16T14:13:45.218Z,14.60
2023-02-16T14:16:27.853Z,14.50
2023-02-16T14:18:59.192Z,14.50
2023-02-16T14:21:37.462Z,14.70
2023-02-16T14:24:07.475Z,14.60
2023-02-16T14:26:53.479Z,14.50
2023-02-16T14:29:25.195Z,14.60
2023-02-16T14:32:00.085Z,14.70
2023-02-16T14:34:31.524Z,14.80
2023-02-16T14:37:29.085Z,14.90
2023-02-16T14:40:08.089Z,14.80
2023-02-16T14:42:38.158Z,14.80
2023-02-16T14:45:42.090Z,14.70
2023-02-16T14:48:22.252Z,14.70
2023-02-16T14:51:09.997Z,14.70
2023-02-16T14:54:00.407Z,14.60
2023-02-16T14:56:38.547Z,14.50
2023-02-16T14:59:18.100Z,14.50
2023-02-16T15:01:46.944Z,14.50
2023-02-16T15:04:28.113Z,14.40
2023-02-16T15:06:57.494Z,14.20
2023-02-16T15:09:31.009Z,14.10
2023-02-16T15:12:18.259Z,14.10
2023-02-16T15:14:49.911Z,14.00
2023-02-16T15:17:29.811Z,14.00
2023-02-16T15:20:04.553Z,13.50
2023-02-16T15:22:32.483Z,13.50
2023-02-16T15:25:02.483Z,13.40
2023-02-16T15:27:32.995Z,13.20
2023-02-16T15:30:09.320Z,13.20
2023-02-16T15:32:37.237Z,13.00
2023-02-16T15:35:13.221Z,13.00
2023-02-16T15:37:41.335Z,12.90
2023-02-16T15:40:29.632Z,13.00
2023-02-16T15:43:04.060Z,13.00
2023-02-16T15:45:37.829Z,13.00
2023-02-16T15:48:29.283Z,13.10
2023-02-16T15:51:02.270Z,13.00
2023-02-16T15:53:36.807Z,13.10
2023-02-16T15:56:14.751Z,13.00
2023-02-16T15:58:42.745Z,12.90
2023-02-16T16:01:15.441Z,12.90
2023-02-16T16:03:46.447Z,13.00
2023-02-16T16:06:14.309Z,13.00
2023-02-16T16:08:42.252Z,13.10
2023-02-16T16:11:10.336Z,13.00
2023-02-16T16:13:38.827Z,13.00
2023-02-16T16:16:09.747Z,13.00
2023-02-16T16:18:47.240Z,12.80
2023-02-16T16:21:19.498Z,12.70
2023-02-16T16:24:03.485Z,12.60
2023-02-16T16:26:35.156Z,12.60
2023-02-16T16:29:02.946Z,12.40
2023-02-16T16:31:40.507Z,12.20
2023-02-16T16:34:12.366Z,12.20
2023-02-16T16:36:46.863Z,12.10
2023-02-16T16:39:27.869Z,12.00
2023-02-16T16:42:26.017Z,11.90
2023-02-16T16:44:56.448Z,12.10
2023-02-16T16:47:27.917Z,12.20
2023-02-16T16:49:59.676Z,12.20
2023-02-16T16:52:36.181Z,12.30
2023-02-16T16:55:24.775Z,12.40
2023-02-16T16:57:54.826Z,12.40
2023-02-16T17:00:24.896Z,12.40
2023-02-16T17:02:53.018Z,12.30
2023-02-16T17:05:22.638Z,12.30
2023-02-16T17:07:51.897Z,12.30
2023-02-16T17:10:21.893Z,12.20
2023-02-16T17:12:53.040Z,12.10
2023-02-16T17:15:29.582Z,11.90
2023-02-16T17:17:58.088Z,11.80
2023-02-16T17:20:27.612Z,11.60
2023-02-16T17:22:55.326Z,11.70
2023-02-16T17:25:23.088Z,11.90
2023-02-16T17:27:50.818Z,12.00
2023-02-16T17:30:18.690Z,12.10
2023-02-16T17:32:46.440Z,12.00
2023-02-16T17:35:14.784Z,11.80
2023-02-16T17:37:43.904Z,11.90
2023-02-16T17:40:17.166Z,11.90
2023-02-16T17:42:44.902Z,12.00
2023-02-16T17:45:12.635Z,12.10
2023-02-16T17:47:40.312Z,12.10
2023-02-16T17:50:08.991Z,12.00
2023-02-16T17:52:37.149Z,11.80
2023-02-16T17:55:06.866Z,11.80
2023-02-16T17:57:34.955Z,11.70
2023-02-16T18:00:04.480Z,11.90
2023-02-16T18:02:32.232Z,11.80
2023-02-16T18:05:00.353Z,11.90
2023-02-16T18:07:28.635Z,11.90
2023-02-16T18:09:56.552Z,11.90
2023-02-16T18:12:28.134Z,11.90
2023-02-16T18:14:56.222Z,11.70
2023-02-16T18:17:23.952Z,11.70
2023-02-16T18:19:51.735Z,11.70
2023-02-16T18:22:19.503Z,11.70
2023-02-16T18:24:47.201Z,11.50
2023-02-16T18:27:14.946Z,11.50
2023-02-16T18:29:44.013Z,11.50
2023-02-16T18:32:11.701Z,11.60
2023-02-16T18:34:39.483Z,11.70
2023-02-16T18:37:07.199Z,11.60
2023-02-16T18:39:34.951Z,11.60
2023-02-16T18:42:02.730Z,11.60
2023-02-16T18:44:30.476Z,11.60
2023-02-16T18:46:59.522Z,11.60
2023-02-16T18:49:27.367Z,11.70
2023-02-16T18:51:55.093Z,11.70
2023-02-16T18:54:22.808Z,11.60
2023-02-16T18:56:50.530Z,11.50
2023-02-16T18:59:18.348Z,11.60
2023-02-16T19:01:46.105Z,11.60
2023-02-16T19:04:15.292Z,11.60
2023-02-16T19:06:43.118Z,11.50
2023-02-16T19:09:10.836Z,11.40
2023-02-16T19:11:38.607Z,11.60
2023-02-16T19:14:06.350Z,11.50
2023-02-16T19:16:34.074Z,11.60
2023-02-16T19:19:01.838Z,11.60
2023-02-16T19:21:31.054Z,11.60
2023-02-16T19:23:58.740Z,11.40
2023-02-16T19:26:26.663Z,11.30
2023-02-16T19:28:54.900Z,11.30
2023-02-16T19:31:25.730Z,11.20
2023-02-16T19:33:54.264Z,11.30
2023-02-16T19:36:23.455Z,11.40
2023-02-16T19:38:53.286Z,11.30
2023-02-16T19:41:24.164Z,11.50
2023-02-16T19:43:52.759Z,11.50
2023-02-16T19:46:20.757Z,11.30
2023-02-16T19:48:48.692Z,11.50
2023-02-16T19:51:17.113Z,11.30
2023-02-16T19:53:45.305Z,11.40
2023-02-16T19:56:16.761Z,11.50
2023-02-16T19:58:44.815Z,11.60
2023-02-16T20:01:15.137Z,11.80
2023-02-16T20:03:43.254Z,12.00
2023-02-16T20:06:16.375Z,11.80
2023-02-16T20:08:44.798Z,11.90
2023-02-16T20:11:13.928Z,11.70
2023-02-16T20:13:41.703Z,11.80
2023-02-16T20:16:10.960Z,11.70
2023-02-16T20:18:40.256Z,11.80
2023-02-16T20:21:09.765Z,11.70
2023-02-16T20:23:37.854Z,11.50
2023-02-16T20:26:07.314Z,11.40
2023-02-16T20:28:36.727Z,11.40
2023-02-16T20:31:10.715Z,11.30
2023-02-16T20:33:38.493Z,11.40
2023-02-16T20:36:07.054Z,11.40
2023-02-16T20:38:35.108Z,11.50
2023-02-16T20:41:03.150Z,11.40
2023-02-16T20:43:30.956Z,11.20
2023-02-16T20:46:00.560Z,11.20
2023-02-16T20:48:28.685Z,11.20
2023-02-16T20:50:57.364Z,11.20
2023-02-16T20:53:25.456Z,11.20
2023-02-16T20:56:01.730Z,11.20
2023-02-16T20:58:33.026Z,11.30
2023-02-16T21:01:02.884Z,11.30
2023-02-16T21:03:30.663Z,11.30
2023-02-16T21:05:58.435Z,11.40
2023-02-16T21:08:26.132Z,11.50
2023-02-16T21:10:54.044Z,11.50
2023-02-16T21:13:21.886Z,11.20
2023-02-16T21:15:49.674Z,11.00
2023-02-16T21:18:24.405Z,11.20
2023-02-16T21:20:55.327Z,11.10
2023-02-16T21:23:23.143Z,11.20
2023-02-16T21:25:51.144Z,11.00
2023-02-16T21:28:18.907Z,11.10
2023-02-16T21:30:46.727Z,11.20
2023-02-16T21:33:14.449Z,11.20
2023-02-16T21:35:43.515Z,11.20
2023-02-16T21:38:11.234Z,11.20
2023-02-16T21:40:56.570Z,11.10
2023-02-16T21:43:24.341Z,11.10
2023-02-16T21:45:59.526Z,11.20
2023-02-16T21:48:45.275Z,11.30
2023-02-16T21:51:15.358Z,11.20
2023-02-16T21:53:43.585Z,11.40
2023-02-16T21:56:21.775Z,11.60
2023-02-16T21:58:49.570Z,11.60
2023-02-16T22:01:21.804Z,11.70
2023-02-16T22:03:50.203Z,11.60
2023-02-16T22:06:19.250Z,11.60
2023-02-16T22:08:47.026Z,11.80
2023-02-16T22:11:14.936Z,11.90
2023-02-16T22:13:42.761Z,11.90
2023-02-16T22:16:12.544Z,11.90
2023-02-16T22:18:41.145Z,11.90
2023-02-16T22:21:09.718Z,12.00
2023-02-16T22:23:39.823Z,12.10
2023-02-16T22:26:09.416Z,12.00
2023-02-16T22:28:39.447Z,12.00
2023-02-16T22:31:08.398Z,12.00
2023-02-16T22:33:36.205Z,12.00
2023-02-16T22:36:09.868Z,11.90
2023-02-16T22:38:38.940Z,11.90
2023-02-16T22:41:07.349Z,11.90
2023-02-16T22:43:35.655Z,11.70
2023-02-16T22:46:07.273Z,11.40
2023-02-16T22:48:35.615Z,11.40
2023-02-16T22:51:05.510Z,11.50
2023-02-16T22:53:33.795Z,11.50
2023-02-16T22:56:06.513Z,11.40
2023-02-16T22:58:34.807Z,11.30
2023-02-16T23:01:02.632Z,11.50
2023-02-16T23:03:31.781Z,11.40
2023-02-16T23:05:59.517Z,11.30
2023-02-16T23:08:27.320Z,11.00
2023-02-16T23:11:00.933Z,11.00
2023-02-16T23:13:31.800Z,11.00
2023-02-16T23:16:05.459Z,11.10
2023-02-16T23:18:33.778Z,11.20
2023-02-16T23:21:06.859Z,11.40
2023-02-16T23:23:34.703Z,11.30
2023-02-16T23:26:02.647Z,11.10
2023-02-16T23:28:31.984Z,11.00
2023-02-16T23:30:59.762Z,11.00
2023-02-16T23:33:27.762Z,11.00
2023-02-16T23:35:55.791Z,11.10
2023-02-16T23:38:23.740Z,11.30
2023-02-16T23:40:56.870Z,11.10
2023-02-16T23:43:24.708Z,11.30
2023-02-16T23:45:54.474Z,11.30
2023-02-16T23:48:22.785Z,11.30
2023-02-16T23:50:51.141Z,11.30
2023-02-16T23:53:19.685Z,11.10
2023-02-16T23:55:57.994Z,11.20
2023-02-16T23:58:27.288Z,11.20
